Time;durP1;ratioP1;P1;durP2;ratioP2;P2;SDS_P1;SDS_P2;PMS_P1;PMS_P2;Temp;Humidity;BMP_temperature;BMP_pressure;BME280_temperature;BME280_humidity;BME280_pressure;Samples;Min_cycle;Max_cycle;Signal;HPM_P1;HPM_P2
2021/12/08 00:01:31;;;;;;;7.55;2.78;;;;;;;2.86;61.88;98221.84;10382476;28;20038;-67
2021/12/08 00:06:33;;;;;;;7.85;2.60;;;;;;;2.77;62.39;98199.97;10381890;28;20536;-67
2021/12/08 00:16:55;;;;;;;8.55;2.80;;;;;;;2.52;63.94;98191.91;10382856;28;20049;-68
2021/12/08 00:21:57;;;;;;;9.63;2.88;;;;;;;2.57;63.61;98192.50;10389397;28;20136;-68
2021/12/08 00:26:59;;;;;;;7.72;2.60;;;;;;;2.65;63.32;98198.06;10389631;28;20049;-67
2021/12/08 00:32:06;;;;;;;8.23;3.17;;;;;;;2.63;63.61;98194.72;10389116;28;20455;-67
2021/12/08 00:37:08;;;;;;;8.32;2.70;;;;;;;2.66;63.65;98196.31;10389475;28;20046;-67
2021/12/08 00:42:10;;;;;;;7.05;2.95;;;;;;;2.65;63.89;98199.81;10387722;28;20055;-68
2021/12/08 00:47:12;;;;;;;5.45;2.70;;;;;;;2.73;63.69;98200.22;10388419;28;20262;-67
2021/12/08 00:52:14;;;;;;;7.72;3.38;;;;;;;2.81;64.03;98213.53;10388432;28;20045;-68
2021/12/08 00:57:15;;;;;;;6.30;2.85;;;;;;;2.73;63.92;98189.88;10386876;28;20521;-67
2021/12/08 01:02:17;;;;;;;8.50;3.17;;;;;;;2.75;64.08;98203.53;10388221;28;20049;-68
2021/12/08 01:07:19;;;;;;;7.82;3.50;;;;;;;2.84;63.84;98201.28;10388150;28;20061;-67
2021/12/08 01:12:20;;;;;;;7.68;3.35;;;;;;;2.85;63.93;98199.53;10387609;28;20049;-67
2021/12/08 01:17:22;;;;;;;7.95;3.85;;;;;;;2.87;64.49;98208.84;10387981;28;20053;-67
2021/12/08 01:22:24;;;;;;;8.02;3.30;;;;;;;2.85;64.17;98205.53;10387528;28;20509;-68
2021/12/08 01:27:26;;;;;;;5.93;3.25;;;;;;;2.75;64.54;98204.38;10387299;28;20068;-68
2021/12/08 01:32:28;;;;;;;6.68;3.33;;;;;;;2.77;64.50;98202.53;10386125;28;20490;-68
2021/12/08 01:37:30;;;;;;;8.55;3.53;;;;;;;2.91;64.75;98194.84;10401213;28;20041;-67
2021/12/08 01:42:41;;;;;;;8.65;3.85;;;;;;;2.57;65.44;98196.81;10386235;28;20053;-68
2021/12/08 01:47:42;;;;;;;7.60;4.67;;;;;;;2.35;66.15;98186.84;10386576;28;20049;-67
2021/12/08 01:52:44;;;;;;;9.38;5.35;;;;;;;2.29;67.06;98183.75;10386048;28;20045;-68
2021/12/08 01:57:47;;;;;;;10.20;4.97;;;;;;;2.37;66.69;98185.00;10386335;28;20072;-68
2021/12/08 02:02:48;;;;;;;7.57;4.40;;;;;;;2.40;66.71;98171.94;10386041;28;20053;-68
2021/12/08 02:07:51;;;;;;;8.40;4.20;;;;;;;2.44;66.85;98164.88;10386104;28;20490;-68
2021/12/08 02:12:53;;;;;;;8.75;4.25;;;;;;;2.54;66.46;98159.09;10385214;28;20377;-68
2021/12/08 02:17:55;;;;;;;8.73;4.13;;;;;;;2.51;66.81;98153.28;10385332;28;20620;-68
2021/12/08 02:22:57;;;;;;;8.70;4.20;;;;;;;2.61;66.82;98141.53;10384272;28;20049;-68
2021/12/08 02:28:04;;;;;;;8.63;4.25;;;;;;;2.54;66.83;98151.34;10385085;28;20257;-67
2021/12/08 02:49:26;;;;;;;6.72;4.38;;;;;;;2.44;66.62;98131.34;10263091;28;20053;-68
2021/12/08 02:54:43;;;;;;;8.90;4.78;;;;;;;2.65;66.87;98138.69;10383413;28;20050;-68
2021/12/08 02:59:46;;;;;;;9.73;4.30;;;;;;;2.66;66.89;98132.59;10384257;28;20041;-68
2021/12/08 03:04:48;;;;;;;5.97;3.63;;;;;;;2.87;66.51;98152.06;10389526;28;20051;-67
2021/12/08 03:09:49;;;;;;;12.40;4.70;;;;;;;2.84;66.38;98154.81;10392456;28;20054;-68
2021/12/08 03:14:51;;;;;;;10.70;4.40;;;;;;;2.84;66.36;98151.41;10390224;28;20251;-68
2021/12/08 03:19:53;;;;;;;8.50;3.97;;;;;;;2.84;66.36;98147.09;10391375;28;20071;-68
2021/12/08 03:24:55;;;;;;;7.93;3.95;;;;;;;2.98;65.99;98147.13;10389547;28;20057;-67
2021/12/08 03:30:00;;;;;;;7.18;3.95;;;;;;;2.98;66.14;98139.38;10391989;28;20554;-67
2021/12/08 03:35:04;;;;;;;11.13;4.07;;;;;;;3.01;65.98;98143.50;10392074;28;20048;-67
2021/12/08 03:40:15;;;;;;;8.60;4.10;;;;;;;3.12;65.96;98145.47;10391426;28;20409;-67
2021/12/08 03:45:26;;;;;;;7.53;3.77;;;;;;;3.00;65.86;98145.28;10391562;28;20060;-67
2021/12/08 03:50:31;;;;;;;6.10;3.45;;;;;;;3.15;65.53;98151.31;10391215;28;20486;-67
2021/12/08 03:55:33;;;;;;;9.02;3.80;;;;;;;3.25;65.56;98138.69;10398830;28;20057;-67
2021/12/08 04:00:34;;;;;;;6.60;3.58;;;;;;;3.25;65.57;98134.38;10398671;28;20053;-67
2021/12/08 04:05:46;;;;;;;6.43;4.00;;;;;;;3.14;65.51;98149.66;10393859;28;20410;-67
2021/12/08 04:10:49;;;;;;;;;;;;;;;2.82;66.62;98142.91;10392283;28;20136;-67
2021/12/08 04:15:51;;;;;;;9.13;4.00;;;;;;;2.92;65.97;98144.06;10391756;28;20349;-67
2021/12/08 04:20:57;;;;;;;6.55;3.95;;;;;;;2.98;65.71;98149.69;10391490;28;20544;-67
2021/12/08 04:25:59;;;;;;;10.63;4.70;;;;;;;2.94;65.65;98153.38;10391766;28;20084;-67
2021/12/08 04:31:27;;;;;;;8.65;4.85;;;;;;;2.84;66.33;98156.56;10391308;28;20045;-67
2021/12/08 04:36:39;;;;;;;9.23;4.30;;;;;;;2.98;66.25;98152.28;10391268;28;20141;-67
2021/12/08 04:41:51;;;;;;;8.50;4.32;;;;;;;3.02;66.04;98142.59;10390712;28;20630;-67
2021/12/08 04:47:53;;;;;;;9.30;5.00;;;;;;;3.13;66.05;98147.16;10390610;28;20497;-67
2021/12/08 05:08:22;;;;;;;8.82;4.35;;;;;;;3.38;65.36;98147.38;10389626;28;20084;-67
2021/12/08 05:13:24;;;;;;;10.57;4.38;;;;;;;3.27;65.14;98149.75;10389558;28;20493;-67
2021/12/08 05:18:31;;;;;;;8.07;4.40;;;;;;;3.15;65.30;98138.41;10389623;28;20753;-67
2021/12/08 05:23:35;;;;;;;13.57;5.30;;;;;;;3.12;65.78;98160.97;10389012;28;20053;-67
2021/12/08 05:28:40;;;;;;;10.98;6.13;;;;;;;3.01;66.42;98175.34;10389399;28;20060;-66
2021/12/08 05:33:43;;;;;;;11.85;6.38;;;;;;;3.09;66.19;98169.72;10389016;28;20059;-67
2021/12/08 05:38:46;;;;;;;8.80;5.22;;;;;;;3.26;66.07;98163.59;10388648;28;20053;-67
2021/12/08 05:43:49;;;;;;;13.40;5.43;;;;;;;3.41;65.49;98157.53;10388177;28;20049;-67
2021/12/08 05:48:52;;;;;;;12.82;5.93;;;;;;;3.43;65.53;98146.19;10389509;28;20060;-67
2021/12/08 05:53:58;;;;;;;10.52;5.97;;;;;;;3.41;65.66;98157.53;10387971;28;20049;-67
2021/12/08 05:59:02;;;;;;;11.93;5.80;;;;;;;3.29;66.07;98168.59;10387963;28;20050;-67
2021/12/08 06:04:08;;;;;;;14.23;6.57;;;;;;;3.44;65.46;98178.84;10387669;28;20141;-67
2021/12/08 06:09:11;;;;;;;10.80;5.57;;;;;;;3.49;65.34;98182.00;10387828;28;20515;-67
2021/12/08 06:14:20;;;;;;;10.23;5.88;;;;;;;3.43;65.40;98197.03;10387023;28;20165;-67
2021/12/08 06:19:21;;;;;;;11.63;6.57;;;;;;;3.26;66.06;98184.25;10387001;28;20053;-67
2021/12/08 06:24:23;;;;;;;10.98;6.65;;;;;;;3.24;66.24;98199.00;10386325;28;20049;-67
2021/12/08 06:29:25;;;;;;;12.23;6.80;;;;;;;3.30;66.26;98190.91;10386807;28;20498;-66
2021/12/08 06:34:28;;;;;;;17.90;8.70;;;;;;;3.07;66.42;98175.91;10386224;28;20071;-67
2021/12/08 06:39:35;;;;;;;16.65;8.90;;;;;;;3.07;66.70;98181.09;10386867;28;20057;-67
2021/12/08 06:44:41;;;;;;;15.77;8.93;;;;;;;3.11;66.54;98177.41;10386156;28;20511;-67
2021/12/08 06:49:47;;;;;;;16.70;9.98;;;;;;;3.09;66.64;98184.41;10386492;28;20067;-66
2021/12/08 06:54:58;;;;;;;16.80;8.77;;;;;;;2.99;66.58;98168.59;10386252;28;20761;-67
2021/12/08 07:00:16;;;;;;;14.40;8.82;;;;;;;2.84;66.53;98192.72;10386277;28;20571;-66
2021/12/08 07:05:30;;;;;;;14.85;8.63;;;;;;;2.82;66.72;98169.56;10385576;28;20315;-66
2021/12/08 07:10:37;;;;;;;17.55;10.13;;;;;;;2.78;66.41;98187.88;10386257;28;20045;-67
2021/12/08 07:15:41;;;;;;;14.98;8.25;;;;;;;2.71;66.68;98174.50;10385444;28;20057;-67
2021/12/08 07:20:52;;;;;;;18.45;9.15;;;;;;;2.60;67.15;98200.03;10383777;28;20042;-67
2021/12/08 07:25:57;;;;;;;18.65;10.73;;;;;;;2.58;66.97;98191.56;10385393;28;20142;-67
2021/12/08 07:31:09;;;;;;;16.35;11.25;;;;;;;2.31;68.13;98198.25;10393562;28;20049;-67
2021/12/08 07:36:15;;;;;;;22.35;12.50;;;;;;;2.21;68.23;98208.19;10393545;28;20084;-67
2021/12/08 07:41:21;;;;;;;17.55;11.35;;;;;;;2.35;67.99;98196.31;10393701;28;20590;-67
2021/12/08 07:46:30;;;;;;;17.58;9.70;;;;;;;2.43;68.04;98199.31;10391904;28;20139;-67
2021/12/08 07:51:39;;;;;;;19.35;11.20;;;;;;;2.62;67.86;98203.38;10393017;28;20324;-67
2021/12/08 07:56:43;;;;;;;21.58;13.85;;;;;;;2.71;67.48;98183.97;10392174;28;20057;-66
2021/12/08 08:01:50;;;;;;;19.30;12.10;;;;;;;2.74;67.44;98205.31;10392775;28;20053;-66
2021/12/08 08:06:56;;;;;;;22.75;13.50;;;;;;;2.75;67.58;98212.13;10391659;28;20093;-66
2021/12/08 08:12:01;;;;;;;23.50;15.02;;;;;;;2.81;67.18;98205.78;10391276;28;20062;-67
2021/12/08 08:17:03;;;;;;;29.40;16.50;;;;;;;2.88;66.96;98194.19;10391822;28;20060;-67
2021/12/08 08:22:09;;;;;;;19.08;13.75;;;;;;;2.66;67.66;98193.75;10392644;28;20045;-67
2021/12/08 08:27:13;;;;;;;23.70;14.95;;;;;;;2.70;67.59;98195.22;10392361;28;20049;-66
2021/12/08 08:32:23;;;;;;;20.52;13.45;;;;;;;2.84;67.86;98215.94;10387068;28;20050;-67
2021/12/08 08:37:25;;;;;;;27.98;16.52;;;;;;;2.96;67.53;98213.50;10388680;28;20080;-67
2021/12/08 08:42:36;;;;;;;22.55;14.38;;;;;;;2.91;67.71;98220.66;10390911;28;20052;-67
2021/12/08 08:47:43;;;;;;;28.27;16.65;;;;;;;3.18;67.43;98230.34;10389523;28;20150;-67
2021/12/08 08:52:52;;;;;;;18.67;12.35;;;;;;;3.45;67.13;98252.03;10384953;28;20045;-67
2021/12/08 08:58:14;;;;;;;27.92;14.27;;;;;;;3.66;66.85;98266.31;10384379;28;20068;-67
2021/12/08 09:03:21;;;;;;;20.83;12.27;;;;;;;3.81;66.81;98270.59;10388384;28;20442;-67
2021/12/08 09:08:25;;;;;;;20.52;14.35;;;;;;;3.90;66.38;98272.66;10384985;28;20053;-67
2021/12/08 09:13:35;;;;;;;19.95;12.93;;;;;;;4.01;66.08;98272.84;10387883;28;20055;-67
2021/12/08 09:19:00;;;;;;;19.52;11.23;;;;;;;4.14;65.91;98291.91;10387024;28;20071;-67
2021/12/08 09:24:09;;;;;;;19.45;11.40;;;;;;;4.08;65.74;98292.28;10387282;28;20215;-66
2021/12/08 09:29:20;;;;;;;17.85;10.18;;;;;;;4.22;65.75;98276.75;10386712;28;20060;-66
2021/12/08 09:34:27;;;;;;;18.60;12.82;;;;;;;4.36;65.46;98263.81;10387051;28;20432;-66
2021/12/08 09:39:38;;;;;;;23.48;11.48;;;;;;;4.46;65.20;98277.84;10385943;28;20057;-66
2021/12/08 09:44:48;;;;;;;22.50;13.10;;;;;;;4.25;65.80;98286.91;10386782;28;20045;-66
2021/12/08 09:49:50;;;;;;;19.03;13.23;;;;;;;4.07;66.42;98298.34;10386433;28;20076;-66
2021/12/08 09:54:51;;;;;;;19.10;13.18;;;;;;;4.15;66.40;98295.34;10387785;28;20660;-66
2021/12/08 09:59:53;;;;;;;21.88;14.82;;;;;;;4.33;66.23;98284.69;10387267;28;20045;-71
2021/12/08 10:05:01;;;;;;;27.02;16.83;;;;;;;4.56;65.75;98299.66;10386520;28;20050;-72
2021/12/08 10:10:05;;;;;;;25.75;16.23;;;;;;;4.65;65.77;98304.28;10386642;28;20151;-72
2021/12/08 10:15:11;;;;;;;31.17;17.30;;;;;;;4.75;65.79;98306.28;10387601;28;20059;-72
2021/12/08 10:20:14;;;;;;;24.05;17.08;;;;;;;4.76;65.42;98287.25;10387099;28;20152;-72
2021/12/08 10:25:21;;;;;;;26.63;15.48;;;;;;;4.68;65.59;98285.94;10385224;28;20054;-71
2021/12/08 10:30:23;;;;;;;30.40;19.60;;;;;;;4.72;65.93;98282.25;10386747;28;20047;-71
2021/12/08 10:35:49;;;;;;;22.83;16.20;;;;;;;4.67;65.85;98276.53;10386395;28;20223;-71
2021/12/08 10:41:01;;;;;;;21.77;14.75;;;;;;;4.70;65.89;98258.22;10385763;28;20085;-71
2021/12/08 10:46:08;;;;;;;26.38;14.50;;;;;;;4.76;65.55;98261.34;10386729;28;20103;-71
2021/12/08 10:56:42;;;;;;;;;;;;;;;4.55;65.53;98259.19;10386425;28;20059;-71
2021/12/08 11:01:44;;;;;;;18.58;12.85;;;;;;;4.76;65.52;98246.63;10385467;28;19995;-71
2021/12/08 11:06:47;;;;;;;19.48;14.52;;;;;;;4.64;65.63;98245.66;10385372;28;20150;-71
2021/12/08 11:11:48;;;;;;;22.58;13.75;;;;;;;4.56;66.22;98263.41;10384775;28;20413;-71
2021/12/08 11:16:50;;;;;;;20.90;13.27;;;;;;;4.76;66.26;98263.94;10385705;28;20460;-71
2021/12/08 11:21:56;;;;;;;21.98;13.40;;;;;;;5.00;65.98;98257.22;10384458;28;20041;-71
2021/12/08 11:27:00;;;;;;;24.10;13.50;;;;;;;5.17;65.73;98267.31;10385080;28;20054;-71
2021/12/08 11:32:08;;;;;;;18.35;12.80;;;;;;;5.33;65.20;98262.84;10385250;28;20516;-72
2021/12/08 11:37:17;;;;;;;19.60;10.98;;;;;;;5.49;64.63;98268.66;10384583;28;20219;-71
2021/12/08 11:42:25;;;;;;;18.35;12.20;;;;;;;5.65;64.73;98266.72;10384862;28;20545;-71
2021/12/08 11:47:33;;;;;;;22.90;14.82;;;;;;;5.69;65.13;98265.59;10384814;28;20060;-72
2021/12/08 11:52:35;;;;;;;18.05;12.10;;;;;;;5.79;64.75;98250.25;10382829;28;20137;-72
2021/12/08 11:57:51;;;;;;;18.25;10.93;;;;;;;5.85;64.69;98255.84;10384964;28;20346;-71
2021/12/08 12:03:02;;;;;;;21.73;12.88;;;;;;;5.78;65.27;98264.97;10384567;28;20524;-72
2021/12/08 12:08:09;;;;;;;16.88;12.05;;;;;;;5.96;64.84;98262.94;10383901;28;20056;-73
2021/12/08 12:13:12;;;;;;;16.65;9.88;;;;;;;6.08;64.24;98260.31;10386338;28;20049;-72
2021/12/08 12:18:20;;;;;;;15.25;9.95;;;;;;;6.17;64.31;98269.25;10391508;28;20087;-72
2021/12/08 12:23:57;;;;;;;23.67;14.23;;;;;;;5.95;64.76;98262.09;10391181;28;20061;-71
2021/12/08 12:29:31;;;;;;;19.20;12.05;;;;;;;5.69;65.66;98263.00;10391337;28;21339;-72
2021/12/08 12:34:35;;;;;;;17.02;10.38;;;;;;;5.99;64.83;98263.53;10390924;28;20081;-72
2021/12/08 12:39:50;;;;;;;17.13;11.98;;;;;;;5.96;64.17;98263.72;10390052;28;20060;-72
2021/12/08 12:44:57;;;;;;;15.93;9.75;;;;;;;5.86;64.40;98252.31;10391385;28;20057;-72
2021/12/08 12:50:14;;;;;;;16.80;10.50;;;;;;;5.72;64.67;98244.63;10390499;28;20059;-72
2021/12/08 12:55:27;;;;;;;16.05;9.27;;;;;;;5.63;65.10;98244.41;10390041;28;20132;-71
2021/12/08 13:00:39;;;;;;;17.13;9.20;;;;;;;5.66;64.78;98259.75;10389103;28;20060;-71
2021/12/08 13:05:51;;;;;;;16.35;9.07;;;;;;;5.74;64.65;98253.13;10389312;28;20497;-72
2021/12/08 13:10:55;;;;;;;15.15;9.15;;;;;;;5.67;64.75;98246.72;10389848;28;20569;-72
2021/12/08 13:15:57;;;;;;;19.17;9.52;;;;;;;5.66;64.81;98250.22;10389925;28;20079;-71
2021/12/08 13:21:01;;;;;;;12.55;8.60;;;;;;;5.84;64.66;98253.38;10383040;28;20081;-72
2021/12/08 13:26:17;;;;;;;17.13;9.57;;;;;;;6.06;64.37;98244.00;10384123;28;21252;-72
2021/12/08 13:31:48;;;;;;;19.98;12.38;;;;;;;6.09;64.64;98245.56;10386064;28;20425;-71
2021/12/08 13:36:47;;;;;;;14.27;8.48;;;;;;;6.06;64.45;98231.03;10386434;28;20209;-73
2021/12/08 13:42:03;;;;;;;15.13;9.88;;;;;;;6.07;64.50;98239.66;10388026;28;20054;-71
2021/12/08 13:47:32;;;;;;;16.25;11.07;;;;;;;6.02;64.95;98237.38;10388130;28;20489;-73
2021/12/08 13:52:37;;;;;;;25.13;14.40;;;;;;;6.06;64.90;98246.59;10387538;28;20049;-71
2021/12/08 13:57:54;;;;;;;20.98;11.48;;;;;;;5.97;64.83;98244.66;10386066;28;20080;-72
2021/12/08 14:03:06;;;;;;;24.58;11.77;;;;;;;5.89;65.04;98249.53;10387178;28;20129;-72
2021/12/08 14:08:22;;;;;;;19.02;10.10;;;;;;;5.85;65.03;98240.28;10388043;28;20572;-72
2021/12/08 14:13:30;;;;;;;17.65;11.52;;;;;;;5.87;65.18;98237.59;10387633;28;20136;-71
2021/12/08 14:18:33;;;;;;;19.30;12.35;;;;;;;5.76;65.01;98247.88;10387161;28;20319;-72
2021/12/08 14:23:39;;;;;;;24.80;16.15;;;;;;;5.72;65.25;98244.63;10387237;28;20053;-73
2021/12/08 14:28:45;;;;;;;20.20;12.63;;;;;;;5.57;65.63;98240.47;10386929;28;20064;-72
2021/12/08 14:34:06;;;;;;;17.75;11.95;;;;;;;5.45;65.88;98242.09;10385816;28;20060;-73
2021/12/08 14:39:19;;;;;;;20.20;12.73;;;;;;;5.37;65.96;98246.16;10384380;28;20499;-72
2021/12/08 14:44:30;;;;;;;20.65;12.13;;;;;;;5.32;65.61;98251.63;10385141;28;20057;-72
2021/12/08 14:49:33;;;;;;;20.58;12.82;;;;;;;5.20;66.00;98256.75;10384180;28;20057;-73
2021/12/08 14:54:43;;;;;;;20.27;14.20;;;;;;;5.14;66.33;98259.75;10384275;28;20071;-73
2021/12/08 14:59:50;;;;;;;20.17;13.30;;;;;;;5.10;66.31;98260.88;10384854;28;20053;-74
2021/12/08 15:04:52;;;;;;;16.90;12.15;;;;;;;5.06;66.17;98259.41;10384770;28;20059;-73
2021/12/08 15:09:58;;;;;;;22.10;13.95;;;;;;;4.97;66.33;98259.97;10386053;28;20053;-74
2021/12/08 15:15:08;;;;;;;25.63;17.63;;;;;;;4.88;66.66;98265.75;10386034;28;20274;-73
2021/12/08 15:20:12;;;;;;;24.80;15.38;;;;;;;4.88;66.35;98268.34;10383774;28;20111;-73
2021/12/08 15:25:22;;;;;;;26.45;17.48;;;;;;;4.71;66.82;98284.94;10384074;28;20045;-72
2021/12/08 15:30:39;;;;;;;27.35;17.02;;;;;;;4.61;67.19;98289.88;10385082;28;20085;-72
2021/12/08 15:36:16;;;;;;;23.08;15.43;;;;;;;4.59;67.21;98296.91;10382794;28;20053;-73
2021/12/08 15:41:25;;;;;;;26.75;16.20;;;;;;;4.56;66.99;98298.81;10382004;28;20041;-72
2021/12/08 15:46:26;;;;;;;32.00;18.35;;;;;;;4.50;67.04;98301.78;10384574;28;20049;-73
2021/12/08 15:51:39;;;;;;;32.25;20.98;;;;;;;4.39;67.45;98311.97;10391634;28;20053;-73
2021/12/08 15:56:42;;;;;;;34.85;18.95;;;;;;;4.32;67.43;98316.69;10392700;28;20085;-73
2021/12/08 16:01:45;;;;;;;32.05;18.70;;;;;;;4.23;67.45;98324.16;10389938;28;20497;-72
2021/12/08 16:06:50;;;;;;;29.23;18.95;;;;;;;4.09;67.76;98324.97;10391489;28;20552;-73
2021/12/08 16:11:58;;;;;;;36.95;19.92;;;;;;;4.06;68.17;98317.41;10390902;28;20063;-73
2021/12/08 16:17:12;;;;;;;35.83;20.73;;;;;;;4.03;68.30;98327.91;10390662;28;20137;-67
2021/12/08 16:22:15;;;;;;;36.28;20.50;;;;;;;4.03;68.36;98322.75;10392093;28;20053;-67
2021/12/08 16:27:19;;;;;;;39.53;23.15;;;;;;;3.96;68.13;98323.19;10392107;28;20055;-67
2021/12/08 16:32:23;;;;;;;42.38;25.30;;;;;;;3.97;67.96;98323.09;10391159;28;20060;-67
2021/12/08 16:37:26;;;;;;;49.28;26.75;;;;;;;4.00;67.81;98329.84;10390292;28;20254;-67
2021/12/08 16:47:52;;;;;;;31.13;18.83;;;;;;;3.95;67.90;98337.88;10391623;28;20053;-67
2021/12/08 16:52:55;;;;;;;32.20;18.98;;;;;;;3.92;67.87;98345.81;10389715;28;20416;-67
2021/12/08 16:58:00;;;;;;;29.67;17.25;;;;;;;3.92;67.86;98352.75;10390050;28;20055;-67
2021/12/08 17:03:07;;;;;;;38.80;20.30;;;;;;;3.85;68.06;98350.50;10390216;28;20062;-67
2021/12/08 17:08:10;;;;;;;43.10;23.55;;;;;;;3.78;68.08;98358.69;10389988;28;20136;-67
2021/12/08 17:13:12;;;;;;;32.40;20.30;;;;;;;3.77;67.94;98357.00;10389914;28;20136;-66
2021/12/08 17:18:14;;;;;;;40.75;23.00;;;;;;;3.76;67.90;98358.75;10387173;28;20168;-67
2021/12/08 17:23:20;;;;;;;37.63;22.70;;;;;;;3.69;68.05;98365.22;10388909;28;20235;-67
2021/12/08 17:28:23;;;;;;;49.30;31.05;;;;;;;3.61;68.30;98369.13;10388662;28;20085;-67
2021/12/08 17:33:26;;;;;;;55.70;26.48;;;;;;;3.57;68.27;98370.22;10389531;28;20049;-67
2021/12/08 17:38:27;;;;;;;39.15;24.33;;;;;;;3.52;68.29;98379.97;10386940;28;20199;-67
2021/12/08 17:43:31;;;;;;;36.25;21.63;;;;;;;3.53;68.12;98379.06;10386530;28;20053;-67
2021/12/08 17:48:53;;;;;;;32.47;17.15;;;;;;;3.44;67.85;98395.09;10380709;28;20060;-67
2021/12/08 17:53:56;;;;;;;41.90;20.98;;;;;;;3.31;68.13;98396.69;10385059;28;20049;-68
2021/12/08 17:59:01;;;;;;;56.60;30.20;;;;;;;3.18;68.43;98406.84;10384916;28;20123;-66
2021/12/08 18:04:07;;;;;;;29.38;17.73;;;;;;;3.18;68.38;98417.19;10387376;28;20171;-68
2021/12/08 18:09:16;;;;;;;26.27;15.52;;;;;;;3.18;68.55;98418.91;10387074;28;20060;-67
2021/12/08 18:14:17;;;;;;;30.80;16.67;;;;;;;3.17;68.21;98423.28;10384485;28;20053;-67
2021/12/08 18:19:19;;;;;;;24.85;14.18;;;;;;;2.90;68.58;98435.91;10384169;28;20050;-66
2021/12/08 18:24:21;;;;;;;21.08;12.68;;;;;;;2.94;68.94;98437.41;10385678;28;20049;-67
2021/12/08 18:29:23;;;;;;;27.13;14.45;;;;;;;2.98;68.75;98441.50;10385430;28;20049;-66
2021/12/08 18:34:53;;;;;;;24.63;13.38;;;;;;;3.05;68.48;98448.00;10385639;28;20628;-66
2021/12/08 18:39:56;;;;;;;25.83;12.93;;;;;;;3.01;68.50;98449.06;10383803;28;20065;-67
2021/12/08 18:44:58;;;;;;;27.38;15.95;;;;;;;2.98;68.53;98462.16;10383696;28;20057;-66
2021/12/08 18:50:00;;;;;;;29.60;17.13;;;;;;;2.97;68.32;98452.72;10383309;28;20049;-67
2021/12/08 18:55:03;;;;;;;25.65;15.43;;;;;;;2.91;68.06;98463.38;10383413;28;20060;-67
2021/12/08 19:00:10;;;;;;;74.13;24.92;;;;;;;2.80;68.42;98460.53;10382477;28;20472;-67
2021/12/08 19:05:16;;;;;;;43.97;20.58;;;;;;;2.70;68.49;98455.91;10371211;28;20151;-67
2021/12/08 19:10:18;;;;;;;40.53;19.52;;;;;;;2.71;68.54;98462.72;10369870;28;20493;-67
2021/12/08 19:15:21;;;;;;;62.25;23.42;;;;;;;2.71;68.46;98471.31;10375158;28;20057;-69
2021/12/08 19:20:25;;;;;;;74.43;21.30;;;;;;;2.64;68.56;98469.94;10378566;28;20049;-67
2021/12/08 19:25:28;;;;;;;428.52;26.40;;;;;;;2.61;68.57;98471.88;10391560;28;20138;-67
2021/12/08 19:30:33;;;;;;;38.97;18.85;;;;;;;2.52;68.78;98475.72;10390404;28;20494;-67
2021/12/08 19:35:38;;;;;;;25.55;13.73;;;;;;;2.50;68.77;98476.75;10387919;28;20408;-67
2021/12/08 19:40:40;;;;;;;34.28;16.75;;;;;;;2.47;68.43;98472.56;10393578;28;20060;-68
2021/12/08 19:45:43;;;;;;;33.50;17.35;;;;;;;2.49;68.48;98475.06;10395640;28;20053;-67
2021/12/08 19:50:46;;;;;;;37.72;17.02;;;;;;;2.47;68.51;98469.16;10392733;28;20386;-67
2021/12/08 19:55:48;;;;;;;26.23;14.50;;;;;;;2.49;68.69;98467.31;10394095;28;20057;-67
2021/12/08 20:00:51;;;;;;;38.85;16.33;;;;;;;2.49;68.27;98469.91;10395259;28;20399;-66
2021/12/08 20:05:54;;;;;;;35.80;18.70;;;;;;;2.41;68.77;98478.03;10387048;28;20052;-67
2021/12/08 20:10:55;;;;;;;70.78;23.05;;;;;;;2.31;68.50;98488.88;10390252;28;20049;-68
2021/12/08 20:15:58;;;;;;;41.42;18.25;;;;;;;2.26;68.26;98483.09;10393206;28;20045;-67
2021/12/08 20:21:04;;;;;;;32.83;13.90;;;;;;;2.26;68.43;98483.94;10384896;28;20425;-67
2021/12/08 20:26:10;;;;;;;29.40;14.88;;;;;;;2.29;68.38;98494.13;10389239;28;20049;-67
2021/12/08 20:31:16;;;;;;;23.05;12.93;;;;;;;2.29;68.50;98488.97;10391743;28;21133;-67
2021/12/08 20:36:20;;;;;;;61.97;17.77;;;;;;;2.26;68.22;98488.25;10387429;28;20053;-67
2021/12/08 20:41:26;;;;;;;39.80;15.40;;;;;;;2.19;68.41;98495.47;10372614;28;20095;-67
2021/12/08 20:46:28;;;;;;;34.08;17.27;;;;;;;2.18;68.35;98509.28;10383037;28;20236;-67
2021/12/08 20:51:30;;;;;;;82.30;19.02;;;;;;;2.20;68.17;98520.34;10380917;28;20046;-67
2021/12/08 20:56:37;;;;;;;141.52;18.58;;;;;;;2.10;68.50;98524.28;10388123;28;20054;-67
2021/12/08 21:01:50;;;;;;;163.20;19.67;;;;;;;2.03;68.68;98528.06;10388261;28;20053;-67
2021/12/08 21:06:53;;;;;;;102.65;21.30;;;;;;;2.00;68.71;98533.38;10376247;28;20068;-67
2021/12/08 21:11:57;;;;;;;64.40;16.30;;;;;;;1.96;68.82;98539.56;10381015;28;20049;-67
2021/12/08 21:16:59;;;;;;;49.20;17.23;;;;;;;1.96;68.69;98544.72;10387227;28;20752;-67
2021/12/08 21:22:02;;;;;;;218.70;25.05;;;;;;;1.98;68.96;98545.50;10387727;28;20045;-67
2021/12/08 21:27:05;;;;;;;127.75;25.33;;;;;;;2.01;68.64;98551.34;10388974;28;20144;-67
2021/12/08 21:32:07;;;;;;;31.40;17.77;;;;;;;1.99;68.65;98557.50;10388779;28;20053;-68
2021/12/08 21:37:09;;;;;;;25.55;14.10;;;;;;;2.12;68.71;98564.56;10387983;28;20051;-68
2021/12/08 21:42:12;;;;;;;25.15;15.65;;;;;;;2.13;68.63;98563.63;10386295;28;20107;-68
2021/12/08 21:47:14;;;;;;;129.55;23.90;;;;;;;2.11;68.33;98562.06;10385842;28;20714;-68
2021/12/08 21:52:16;;;;;;;24.55;14.60;;;;;;;2.07;68.55;98570.84;10370759;28;20056;-68
2021/12/08 21:57:18;;;;;;;78.15;20.48;;;;;;;2.19;68.50;98578.00;10387092;28;20056;-67
2021/12/08 22:02:20;;;;;;;66.28;21.60;;;;;;;2.26;68.26;98586.28;10387849;28;20493;-68
2021/12/08 22:07:22;;;;;;;25.45;15.18;;;;;;;2.22;68.48;98580.44;10385236;28;20057;-67
2021/12/08 22:12:24;;;;;;;20.25;12.95;;;;;;;2.33;68.46;98588.50;10386981;28;20438;-67
2021/12/08 22:17:25;;;;;;;20.75;13.45;;;;;;;2.38;68.41;98586.53;10387020;28;20163;-68
2021/12/08 22:22:28;;;;;;;26.23;14.77;;;;;;;2.47;68.34;98587.84;10385013;28;20046;-67
2021/12/08 22:27:30;;;;;;;24.52;13.32;;;;;;;2.53;68.06;98588.38;10386704;28;20064;-67
2021/12/08 22:32:32;;;;;;;26.30;14.10;;;;;;;2.58;67.87;98588.97;10386118;28;20084;-67
2021/12/08 22:37:35;;;;;;;20.42;12.27;;;;;;;2.53;67.94;98600.44;10385924;28;20042;-67
2021/12/08 22:42:37;;;;;;;28.98;14.55;;;;;;;2.42;67.78;98590.63;10386300;28;20053;-68
2021/12/08 22:47:42;;;;;;;25.15;14.35;;;;;;;2.33;68.58;98609.16;10385723;28;20053;-68
2021/12/08 22:52:44;;;;;;;20.75;12.80;;;;;;;2.49;68.29;98620.41;10383930;28;20100;-68
2021/12/08 22:57:48;;;;;;;21.73;12.25;;;;;;;2.60;68.48;98610.38;10384151;28;20057;-67
2021/12/08 23:02:52;;;;;;;24.73;14.15;;;;;;;2.61;68.26;98612.06;10385446;28;20055;-67
2021/12/08 23:08:00;;;;;;;25.25;14.13;;;;;;;2.53;68.32;98610.75;10385135;28;20060;-67
2021/12/08 23:13:07;;;;;;;29.98;16.77;;;;;;;2.60;68.17;98612.97;10384801;28;20060;-67
2021/12/08 23:18:08;;;;;;;26.17;15.77;;;;;;;2.64;68.12;98614.47;10384838;28;20111;-68
2021/12/08 23:23:10;;;;;;;23.35;14.70;;;;;;;2.49;68.38;98612.66;10384861;28;20060;-67
2021/12/08 23:28:13;;;;;;;30.23;16.98;;;;;;;2.46;68.26;98614.56;10385983;28;20072;-67
2021/12/08 23:33:16;;;;;;;29.95;16.77;;;;;;;2.52;68.40;98615.09;10384995;28;20077;-67
2021/12/08 23:38:35;;;;;;;24.48;15.60;;;;;;;2.51;68.42;98613.44;10384425;28;20059;-67
2021/12/08 23:43:38;;;;;;;26.30;15.52;;;;;;;2.56;68.16;98611.44;10384834;28;20057;-67
2021/12/08 23:48:40;;;;;;;30.02;15.45;;;;;;;2.40;68.08;98610.50;10384815;28;20392;-68
2021/12/08 23:53:42;;;;;;;25.45;13.95;;;;;;;2.31;68.25;98597.22;10384225;28;20116;-67
2021/12/08 23:58:49;;;;;;;27.17;15.00;;;;;;;2.33;68.14;98604.00;10383924;28;20053;-68
